Time;durP1;ratioP1;P1;durP2;ratioP2;P2;SDS_P1;SDS_P2;PMS_P1;PMS_P2;Temp;Humidity;BMP_temperature;BMP_pressure;BME280_temperature;BME280_humidity;BME280_pressure;Samples;Min_cycle;Max_cycle;Signal;HPM_P1;HPM_P2
2022/09/07 00:01:35;;;;;;;2.37;2.17;;;10.50;99.90;;;;;;4989649;28;20101;-72
2022/09/07 00:04:02;;;;;;;2.33;1.53;;;10.50;99.90;;;;;;5007581;28;20053;-73
2022/09/07 00:06:28;;;;;;;0.90;0.90;;;10.50;99.90;;;;;;4990180;28;20497;-73
2022/09/07 00:08:54;;;;;;;2.53;2.17;;;10.50;99.90;;;;;;5005918;28;20045;-73
2022/09/07 00:11:19;;;;;;;1.70;1.27;;;10.40;99.90;;;;;;5007600;28;20542;-73
2022/09/07 00:13:48;;;;;;;4.90;3.10;;;10.40;99.90;;;;;;5006198;28;20556;-72
2022/09/07 00:16:17;;;;;;;1.52;1.42;;;10.40;99.90;;;;;;5006449;28;20625;-73
2022/09/07 00:18:43;;;;;;;4.53;2.25;;;10.40;99.90;;;;;;5005781;28;20026;-72
2022/09/07 00:21:10;;;;;;;1.70;1.60;;;10.40;99.90;;;;;;5004344;28;20029;-72
2022/09/07 00:23:37;;;;;;;2.75;2.15;;;10.40;99.90;;;;;;5001209;28;20390;-73
2022/09/07 00:26:06;;;;;;;3.28;2.97;;;10.40;99.90;;;;;;4987836;28;20026;-73
2022/09/07 00:28:32;;;;;;;2.58;2.03;;;10.40;99.90;;;;;;4986686;28;20046;-74
2022/09/07 00:30:58;;;;;;;2.38;2.17;;;10.40;99.90;;;;;;4999269;28;20041;-73
2022/09/07 00:33:25;;;;;;;2.07;1.90;;;10.40;99.90;;;;;;5007517;28;20034;-73
2022/09/07 00:35:51;;;;;;;5.22;2.28;;;10.40;99.90;;;;;;5007322;28;20034;-73
2022/09/07 00:38:16;;;;;;;2.07;1.97;;;10.40;99.90;;;;;;5005221;28;20492;-73
2022/09/07 00:40:42;;;;;;;1.83;1.73;;;10.40;99.90;;;;;;4986292;28;20034;-73
2022/09/07 00:43:27;;;;;;;2.20;2.00;;;10.40;99.90;;;;;;4985470;28;20133;-72
2022/09/07 00:45:52;;;;;;;2.40;1.15;;;10.30;99.90;;;;;;4987354;28;20486;-73
2022/09/07 00:48:19;;;;;;;3.20;2.27;;;10.30;99.90;;;;;;4999913;28;20030;-72
2022/09/07 00:50:54;;;;;;;2.22;2.03;;;10.20;99.90;;;;;;5006894;28;20041;-72
2022/09/07 00:53:35;;;;;;;10.35;2.22;;;10.20;99.90;;;;;;5005056;28;20038;-72
2022/09/07 00:56:02;;;;;;;6.03;3.97;;;10.20;99.90;;;;;;4988081;28;20035;-72
2022/09/07 00:58:29;;;;;;;1.13;1.02;;;10.20;99.90;;;;;;4986237;28;20033;-73
2022/09/07 01:00:55;;;;;;;2.67;2.47;;;10.20;99.90;;;;;;4985965;28;20030;-71
2022/09/07 01:03:32;;;;;;;5.50;1.90;;;10.30;99.90;;;;;;4997830;28;20129;-72
2022/09/07 01:06:24;;;;;;;1.35;1.23;;;10.20;99.90;;;;;;5007121;28;20038;-73
2022/09/07 01:08:50;;;;;;;3.75;2.83;;;10.20;99.90;;;;;;5005217;28;20450;-73
2022/09/07 01:11:20;;;;;;;3.10;2.37;;;10.20;99.90;;;;;;5006771;28;20481;-72
2022/09/07 01:13:48;;;;;;;1.92;1.63;;;10.20;99.90;;;;;;4972439;28;20038;-72
2022/09/07 01:16:23;;;;;;;5.35;3.17;;;10.20;99.90;;;;;;4967563;28;20074;-72
2022/09/07 01:19:13;;;;;;;2.38;1.67;;;10.30;99.90;;;;;;4964992;28;21035;-71
2022/09/07 01:21:52;;;;;;;1.30;1.25;;;10.20;99.90;;;;;;4967463;28;20060;-72
2022/09/07 01:24:36;;;;;;;5.82;3.42;;;10.20;99.90;;;;;;4973619;28;20170;-71
2022/09/07 01:27:36;;;;;;;0.68;0.68;;;10.30;99.90;;;;;;4977567;28;20097;-73
2022/09/07 01:30:17;;;;;;;2.25;1.98;;;10.30;99.90;;;;;;4980970;28;20034;-72
2022/09/07 01:33:16;;;;;;;3.05;2.78;;;10.30;99.90;;;;;;4971128;28;20092;-72
2022/09/07 01:35:55;;;;;;;5.93;3.50;;;10.30;99.90;;;;;;5006407;28;20421;-73
2022/09/07 01:38:21;;;;;;;3.00;2.80;;;10.30;99.90;;;;;;5007020;28;20034;-73
2022/09/07 01:41:08;;;;;;;6.63;3.50;;;10.20;99.90;;;;;;4990485;28;20091;-73
2022/09/07 01:43:39;;;;;;;10.75;4.82;;;10.20;99.90;;;;;;4987360;28;20043;-74
2022/09/07 01:46:10;;;;;;;3.03;2.83;;;10.20;99.90;;;;;;4985581;28;20085;-72
2022/09/07 01:48:39;;;;;;;3.13;1.73;;;10.20;99.90;;;;;;4991823;28;20044;-72
2022/09/07 01:51:11;;;;;;;1.50;1.40;;;10.20;99.90;;;;;;5006128;28;20489;-72
2022/09/07 01:53:50;;;;;;;4.07;2.75;;;10.20;99.90;;;;;;5007010;28;20030;-72
2022/09/07 01:56:26;;;;;;;4.35;3.95;;;10.20;99.90;;;;;;5007604;28;20544;-73
2022/09/07 01:59:07;;;;;;;0.98;0.98;;;10.20;99.90;;;;;;4996287;28;20038;-73
2022/09/07 02:01:56;;;;;;;0.70;0.70;;;10.20;99.90;;;;;;5009371;28;20026;-72
2022/09/07 02:04:41;;;;;;;1.98;1.88;;;10.20;99.90;;;;;;4997922;28;20424;-73
2022/09/07 02:07:28;;;;;;;4.75;3.17;;;10.20;99.90;;;;;;4989763;28;20414;-72
2022/09/07 02:10:09;;;;;;;3.78;2.72;;;10.20;99.90;;;;;;4999658;28;20030;-71
2022/09/07 02:12:44;;;;;;;2.30;1.55;;;10.30;99.90;;;;;;5009280;28;20040;-71
2022/09/07 02:15:16;;;;;;;1.58;1.48;;;10.20;99.90;;;;;;5009197;28;20034;-73
2022/09/07 02:17:51;;;;;;;1.45;1.38;;;10.30;99.90;;;;;;5000588;28;20079;-73
2022/09/07 02:20:21;;;;;;;1.55;1.45;;;10.30;99.90;;;;;;4978344;28;20046;-73
2022/09/07 02:22:54;;;;;;;3.22;1.85;;;10.20;99.90;;;;;;4970337;28;20122;-74
2022/09/07 02:25:24;;;;;;;15.00;2.72;;;10.30;99.90;;;;;;5000242;28;20042;-72
2022/09/07 02:27:59;;;;;;;1.25;1.25;;;10.20;99.90;;;;;;5008854;28;20109;-73
2022/09/07 02:30:25;;;;;;;1.35;1.02;;;10.20;99.90;;;;;;4981633;28;20136;-72
2022/09/07 02:32:51;;;;;;;6.30;1.60;;;10.20;99.90;;;;;;4975364;28;20066;-73
2022/09/07 02:35:17;;;;;;;1.80;1.70;;;10.20;99.90;;;;;;5008854;28;20496;-73
2022/09/07 02:37:44;;;;;;;1.93;1.77;;;10.10;99.90;;;;;;5008961;28;20267;-72
2022/09/07 02:40:10;;;;;;;0.57;0.57;;;10.10;99.90;;;;;;4998314;28;20480;-72
2022/09/07 02:42:37;;;;;;;3.57;2.87;;;10.10;99.90;;;;;;4987588;28;20050;-71
2022/09/07 02:45:04;;;;;;;;;;;10.10;99.90;;;;;;4989498;28;20115;-72
2022/09/07 02:47:55;;;;;;;0.90;0.90;;;10.10;99.90;;;;;;4989284;28;20000;-72
2022/09/07 02:50:45;;;;;;;4.57;1.02;;;10.10;99.90;;;;;;4968150;28;20072;-72
2022/09/07 02:53:21;;;;;;;2.17;1.95;;;10.10;99.90;;;;;;4968275;28;20027;-72
2022/09/07 02:56:05;;;;;;;2.17;1.98;;;10.10;99.90;;;;;;4995315;28;20033;-72
2022/09/07 02:58:40;;;;;;;1.60;0.75;;;10.00;99.90;;;;;;5008824;28;20083;-73
2022/09/07 03:01:24;;;;;;;1.30;1.08;;;10.00;99.90;;;;;;5007022;28;20507;-72
2022/09/07 03:04:07;;;;;;;2.63;2.42;;;10.00;99.90;;;;;;4999740;28;20034;-73
2022/09/07 03:06:39;;;;;;;5.70;3.55;;;9.90;99.90;;;;;;4987178;28;20113;-72
2022/09/07 03:09:12;;;;;;;1.80;1.60;;;10.00;99.90;;;;;;4988771;28;20382;-72
2022/09/07 03:11:37;;;;;;;0.57;0.57;;;9.90;99.90;;;;;;5006137;28;20049;-73
2022/09/07 03:14:17;;;;;;;1.07;0.80;;;9.90;99.90;;;;;;5008175;28;20044;-73
2022/09/07 03:16:43;;;;;;;1.92;1.83;;;9.90;99.90;;;;;;5006773;28;20029;-73
2022/09/07 03:19:09;;;;;;;0.77;0.77;;;9.90;99.90;;;;;;4995607;28;20084;-72
2022/09/07 03:21:35;;;;;;;0.50;0.50;;;9.90;99.90;;;;;;4988303;28;20110;-73
2022/09/07 03:24:01;;;;;;;0.77;0.77;;;9.90;99.90;;;;;;4988559;28;20042;-73
2022/09/07 03:26:26;;;;;;;0.88;0.88;;;9.90;99.90;;;;;;5000894;28;20041;-72
2022/09/07 03:28:52;;;;;;;1.47;1.37;;;9.90;99.90;;;;;;4990843;28;20509;-72
2022/09/07 03:31:18;;;;;;;0.40;0.40;;;9.90;99.90;;;;;;4988289;28;20079;-72
2022/09/07 03:33:44;;;;;;;2.17;1.00;;;9.80;99.90;;;;;;4988977;28;20116;-72
2022/09/07 03:36:10;;;;;;;0.50;0.50;;;9.80;99.90;;;;;;5008217;28;20602;-72
2022/09/07 03:38:35;;;;;;;0.90;0.90;;;9.90;99.90;;;;;;5006731;28;20377;-73
2022/09/07 03:41:04;;;;;;;0.47;0.47;;;9.90;99.90;;;;;;4998608;28;20090;-73
2022/09/07 03:43:31;;;;;;;0.50;0.50;;;9.90;99.90;;;;;;4988130;28;20498;-73
2022/09/07 03:46:04;;;;;;;0.47;0.47;;;9.90;99.90;;;;;;4988208;28;20038;-73
2022/09/07 03:48:31;;;;;;;1.30;1.30;;;9.90;99.90;;;;;;4987037;28;20398;-73
2022/09/07 03:51:04;;;;;;;;;;;9.90;99.90;;;;;;5006391;28;20038;-73
2022/09/07 03:53:32;;;;;;;0.40;0.40;;;9.90;99.90;;;;;;5006474;28;19914;-72
2022/09/07 03:55:59;;;;;;;6.90;1.67;;;9.90;99.90;;;;;;5001968;28;20034;-72
2022/09/07 03:58:25;;;;;;;1.67;1.20;;;9.90;99.90;;;;;;5000106;28;20370;-73
2022/09/07 04:00:50;;;;;;;1.17;1.10;;;9.90;99.90;;;;;;5007582;28;20026;-73
2022/09/07 04:03:16;;;;;;;0.73;0.73;;;9.90;99.90;;;;;;4972654;28;20033;-72
2022/09/07 04:05:41;;;;;;;1.60;1.50;;;9.90;99.90;;;;;;4967495;28;20144;-72
2022/09/07 04:08:07;;;;;;;1.63;1.53;;;9.90;99.90;;;;;;4968211;28;20026;-73
2022/09/07 04:10:37;;;;;;;0.60;0.60;;;10.00;99.90;;;;;;4969416;28;20360;-73
2022/09/07 04:13:03;;;;;;;4.80;2.70;;;10.00;99.90;;;;;;4977495;28;20026;-73
2022/09/07 04:15:28;;;;;;;0.47;0.47;;;10.00;99.90;;;;;;4969188;28;20113;-73
2022/09/07 04:17:54;;;;;;;1.23;1.13;;;10.00;99.90;;;;;;4966449;28;20050;-73
2022/09/07 04:20:19;;;;;;;0.30;0.30;;;10.10;99.90;;;;;;4974380;28;20053;-73
2022/09/07 04:22:49;;;;;;;2.37;0.97;;;10.10;99.90;;;;;;4968481;28;20023;-72
2022/09/07 04:25:15;;;;;;;1.20;1.10;;;10.10;99.90;;;;;;4968090;28;20045;-73
2022/09/07 04:27:40;;;;;;;3.00;1.37;;;10.10;99.90;;;;;;5000540;28;20135;-72
2022/09/07 04:30:07;;;;;;;0.47;0.47;;;10.10;99.90;;;;;;4987240;28;20475;-72
2022/09/07 04:32:33;;;;;;;1.60;1.50;;;10.10;99.90;;;;;;4966838;28;20546;-73
2022/09/07 04:34:58;;;;;;;2.80;1.80;;;10.20;99.90;;;;;;4976677;28;20061;-74
2022/09/07 04:37:24;;;;;;;0.60;0.60;;;10.20;99.90;;;;;;4977555;28;20463;-72
2022/09/07 04:39:50;;;;;;;3.40;1.90;;;10.30;99.90;;;;;;4966672;28;20125;-72
2022/09/07 04:42:16;;;;;;;1.70;1.58;;;10.40;99.90;;;;;;4989221;28;20050;-72
2022/09/07 04:44:42;;;;;;;11.57;1.13;;;10.50;99.90;;;;;;5006847;28;20034;-73
2022/09/07 04:47:07;;;;;;;1.67;1.57;;;10.60;99.90;;;;;;4997151;28;20027;-72
2022/09/07 04:49:33;;;;;;;1.03;1.03;;;10.60;99.90;;;;;;4967370;28;20080;-72
2022/09/07 04:51:59;;;;;;;0.93;0.93;;;10.60;99.90;;;;;;4978663;28;20031;-72
2022/09/07 04:54:25;;;;;;;1.27;0.77;;;10.60;99.90;;;;;;4967590;28;20039;-72
2022/09/07 04:56:51;;;;;;;1.65;1.00;;;10.70;99.90;;;;;;4974939;28;20032;-72
2022/09/07 04:59:16;;;;;;;0.50;0.50;;;10.70;99.90;;;;;;4981557;28;20416;-73
2022/09/07 05:01:42;;;;;;;1.43;1.33;;;10.70;99.90;;;;;;4998182;28;20022;-72
2022/09/07 05:04:07;;;;;;;0.70;0.70;;;10.80;99.90;;;;;;5003784;28;20030;-73
2022/09/07 05:06:33;;;;;;;0.83;0.70;;;10.90;99.90;;;;;;5006556;28;20102;-73
2022/09/07 05:08:59;;;;;;;0.70;0.70;;;11.00;99.90;;;;;;5005103;28;20037;-73
2022/09/07 05:11:25;;;;;;;0.63;0.63;;;11.10;99.90;;;;;;4998731;28;20358;-73
2022/09/07 05:13:51;;;;;;;0.52;0.52;;;11.10;99.90;;;;;;4987223;28;20071;-73
2022/09/07 05:16:22;;;;;;;0.70;0.70;;;11.20;99.90;;;;;;4987302;28;20039;-73
2022/09/07 05:18:50;;;;;;;1.00;0.82;;;11.20;99.90;;;;;;4985910;28;20154;-73
2022/09/07 05:21:21;;;;;;;0.40;0.40;;;11.30;99.90;;;;;;5002171;28;20037;-74
2022/09/07 05:23:52;;;;;;;0.38;0.38;;;11.40;99.90;;;;;;5006381;28;20475;-72
2022/09/07 05:26:19;;;;;;;3.53;1.35;;;11.40;99.90;;;;;;4999083;28;20120;-72
2022/09/07 05:28:45;;;;;;;0.52;0.52;;;11.30;99.90;;;;;;4988892;28;20049;-72
2022/09/07 05:31:16;;;;;;;1.85;1.58;;;11.30;99.90;;;;;;4990116;28;20083;-74
2022/09/07 05:33:50;;;;;;;0.50;0.50;;;11.30;99.90;;;;;;4988729;28;20034;-73
2022/09/07 05:36:16;;;;;;;0.90;0.90;;;11.50;99.90;;;;;;5003838;28;20045;-72
2022/09/07 05:38:42;;;;;;;0.55;0.55;;;11.60;99.90;;;;;;5009975;28;20062;-73
2022/09/07 05:41:12;;;;;;;4.03;2.93;;;11.70;99.90;;;;;;5007635;28;20038;-72
2022/09/07 05:43:38;;;;;;;0.50;0.50;;;11.80;99.90;;;;;;5007903;28;20106;-72
2022/09/07 05:46:03;;;;;;;0.40;0.40;;;11.80;99.90;;;;;;5008137;28;20409;-73
2022/09/07 05:48:29;;;;;;;0.50;0.50;;;11.80;99.90;;;;;;5009857;28;20034;-73
2022/09/07 05:50:54;;;;;;;0.40;0.40;;;11.90;99.90;;;;;;5006497;28;20034;-72
2022/09/07 05:53:20;;;;;;;1.30;1.27;;;12.00;99.90;;;;;;5008159;28;20122;-73
2022/09/07 05:55:46;;;;;;;0.60;0.60;;;12.00;99.90;;;;;;4992212;28;20030;-73
2022/09/07 05:58:12;;;;;;;1.10;1.10;;;12.20;99.90;;;;;;4979973;28;20035;-72
2022/09/07 06:00:38;;;;;;;0.80;0.80;;;12.30;99.90;;;;;;4968205;28;20088;-74
2022/09/07 06:03:04;;;;;;;0.97;0.97;;;12.30;99.90;;;;;;4967929;28;20898;-74
2022/09/07 06:05:29;;;;;;;0.90;0.90;;;12.50;99.90;;;;;;4984071;28;20030;-73
2022/09/07 06:07:55;;;;;;;0.70;0.70;;;12.50;99.90;;;;;;4970495;28;20546;-72
2022/09/07 06:10:20;;;;;;;0.60;0.60;;;12.40;99.90;;;;;;4970238;28;20058;-73
2022/09/07 06:12:46;;;;;;;0.80;0.80;;;12.80;99.90;;;;;;4977695;28;20039;-73
2022/09/07 06:15:12;;;;;;;0.63;0.63;;;12.40;99.90;;;;;;5001307;28;20351;-72
2022/09/07 06:17:38;;;;;;;0.40;0.40;;;12.40;99.90;;;;;;5009586;28;20034;-72
2022/09/07 06:20:05;;;;;;;0.40;0.40;;;12.60;99.90;;;;;;4989980;28;20398;-73
2022/09/07 06:22:33;;;;;;;;;;;12.80;99.90;;;;;;4985891;28;20040;-73
2022/09/07 06:24:59;;;;;;;0.40;0.40;;;12.90;99.90;;;;;;4984861;28;19914;-73
2022/09/07 06:27:24;;;;;;;0.63;0.63;;;12.90;99.90;;;;;;4983235;28;20794;-72
2022/09/07 06:29:50;;;;;;;0.50;0.50;;;13.10;99.90;;;;;;4985202;28;20113;-72
2022/09/07 06:32:15;;;;;;;0.40;0.40;;;13.10;99.90;;;;;;4970012;28;20132;-73
2022/09/07 06:34:41;;;;;;;5.03;1.10;;;13.30;99.90;;;;;;4969909;28;20031;-72
2022/09/07 06:37:06;;;;;;;0.30;0.30;;;13.40;99.90;;;;;;4998529;28;20086;-72
2022/09/07 06:39:33;;;;;;;0.37;0.37;;;13.40;99.90;;;;;;5008024;28;20030;-73
2022/09/07 06:41:58;;;;;;;0.63;0.52;;;13.50;99.90;;;;;;5007386;28;20026;-73
2022/09/07 06:44:24;;;;;;;0.60;0.60;;;13.70;99.40;;;;;;5007030;28;20058;-73
2022/09/07 06:46:50;;;;;;;1.40;1.30;;;13.70;99.00;;;;;;5008737;28;20107;-73
2022/09/07 06:49:16;;;;;;;0.30;0.30;;;13.80;99.30;;;;;;5008986;28;20022;-74
2022/09/07 06:51:41;;;;;;;2.00;1.55;;;14.00;99.30;;;;;;4999696;28;20451;-72
2022/09/07 06:54:08;;;;;;;1.43;1.10;;;14.10;98.50;;;;;;4988476;28;20113;-73
2022/09/07 06:56:35;;;;;;;;;;;14.10;98.30;;;;;;4989094;28;20048;-65
2022/09/07 06:59:00;;;;;;;1.25;0.80;;;14.20;97.60;;;;;;5003472;28;19924;-66
2022/09/07 07:01:27;;;;;;;0.90;0.90;;;14.20;97.40;;;;;;5008183;28;20071;-66
2022/09/07 07:03:53;;;;;;;0.80;0.80;;;14.20;97.00;;;;;;4979085;28;20034;-66
2022/09/07 07:06:20;;;;;;;1.77;1.23;;;14.20;96.80;;;;;;4971106;28;20023;-66
2022/09/07 07:08:46;;;;;;;0.50;0.50;;;14.30;96.90;;;;;;4987137;28;20062;-66
2022/09/07 07:11:14;;;;;;;0.50;0.50;;;14.40;96.10;;;;;;4969181;28;20064;-67
2022/09/07 07:13:42;;;;;;;0.30;0.30;;;14.30;95.80;;;;;;4976669;28;20084;-66
2022/09/07 07:16:12;;;;;;;0.77;0.77;;;14.40;96.20;;;;;;4970063;28;20035;-67
2022/09/07 07:18:39;;;;;;;0.60;0.60;;;14.50;95.30;;;;;;4987486;28;20052;-66
2022/09/07 07:21:15;;;;;;;0.30;0.30;;;14.50;95.30;;;;;;4987277;28;20470;-68
2022/09/07 07:23:41;;;;;;;0.60;0.60;;;14.70;95.80;;;;;;4968977;28;20778;-67
2022/09/07 07:26:14;;;;;;;3.10;0.82;;;14.90;95.70;;;;;;4968333;28;20138;-66
2022/09/07 07:28:44;;;;;;;0.30;0.30;;;15.10;94.90;;;;;;4987099;28;20077;-66
2022/09/07 07:31:10;;;;;;;0.40;0.40;;;15.20;94.60;;;;;;4988013;28;20039;-67
2022/09/07 07:33:36;;;;;;;2.30;2.10;;;15.20;93.90;;;;;;4988260;28;20038;-67
2022/09/07 07:36:14;;;;;;;0.60;0.60;;;15.30;93.80;;;;;;4986463;28;20049;-67
2022/09/07 07:38:41;;;;;;;0.50;0.50;;;15.30;93.70;;;;;;4987931;28;20030;-66
2022/09/07 07:41:06;;;;;;;;;;;15.30;93.40;;;;;;4982329;28;20034;-67
2022/09/07 07:43:32;;;;;;;0.63;0.63;;;15.40;93.60;;;;;;4975652;28;19925;-68
2022/09/07 07:45:58;;;;;;;0.40;0.40;;;15.60;93.10;;;;;;4978357;28;20475;-65
2022/09/07 07:48:25;;;;;;;1.00;1.00;;;15.70;93.10;;;;;;4988130;28;20377;-66
2022/09/07 07:50:58;;;;;;;0.30;0.30;;;15.80;92.50;;;;;;4978304;28;20039;-67
2022/09/07 07:53:24;;;;;;;0.55;0.55;;;15.70;92.80;;;;;;4982541;28;20034;-67
2022/09/07 07:55:50;;;;;;;0.30;0.30;;;15.80;92.70;;;;;;4987887;28;20072;-67
2022/09/07 07:58:16;;;;;;;0.70;0.70;;;15.90;92.20;;;;;;4986501;28;20029;-67
2022/09/07 08:00:41;;;;;;;0.80;0.80;;;16.10;91.70;;;;;;4987933;28;20673;-67
2022/09/07 08:03:07;;;;;;;0.40;0.40;;;16.20;91.40;;;;;;4988289;28;20027;-67
2022/09/07 08:05:36;;;;;;;0.87;0.77;;;16.30;91.50;;;;;;4978905;28;20046;-67
2022/09/07 08:08:02;;;;;;;1.17;1.15;;;16.40;90.70;;;;;;4978954;28;20495;-65
2022/09/07 08:10:28;;;;;;;0.30;0.30;;;16.40;90.50;;;;;;4974024;28;20077;-65
2022/09/07 08:12:55;;;;;;;0.43;0.43;;;16.40;90.20;;;;;;4987200;28;20478;-68
2022/09/07 08:15:21;;;;;;;0.45;0.45;;;16.50;90.20;;;;;;4972916;28;20027;-68
2022/09/07 08:17:47;;;;;;;0.30;0.30;;;16.60;89.60;;;;;;4974574;28;20071;-67
2022/09/07 08:20:13;;;;;;;0.40;0.40;;;16.80;86.30;;;;;;4985527;28;20125;-67
2022/09/07 08:22:39;;;;;;;0.38;0.38;;;16.80;86.50;;;;;;4986825;28;20041;-67
2022/09/07 08:25:05;;;;;;;0.73;0.73;;;17.10;85.70;;;;;;4979057;28;20034;-67
2022/09/07 08:27:32;;;;;;;0.50;0.50;;;17.20;85.50;;;;;;4987657;28;20176;-67
2022/09/07 08:29:59;;;;;;;0.40;0.40;;;17.40;83.60;;;;;;4975878;28;20042;-67
2022/09/07 08:32:25;;;;;;;0.38;0.38;;;17.30;83.50;;;;;;4980311;28;20054;-67
2022/09/07 08:34:50;;;;;;;0.30;0.30;;;17.10;83.90;;;;;;4980380;28;20390;-66
2022/09/07 08:37:16;;;;;;;0.40;0.40;;;16.80;83.60;;;;;;4979284;28;20018;-66
2022/09/07 08:39:42;;;;;;;0.40;0.40;;;16.70;85.80;;;;;;4979136;28;20177;-67
2022/09/07 08:42:36;;;;;;;0.93;0.90;;;16.90;85.10;;;;;;4982992;28;20022;-68
2022/09/07 08:45:16;;;;;;;0.30;0.30;;;17.20;84.60;;;;;;4982830;28;20034;-68
2022/09/07 08:47:49;;;;;;;0.40;0.40;;;17.50;84.30;;;;;;4985358;28;20038;-66
2022/09/07 08:50:39;;;;;;;0.40;0.40;;;17.80;83.20;;;;;;4982725;28;20050;-67
2022/09/07 08:53:14;;;;;;;0.40;0.40;;;17.90;82.70;;;;;;4971459;28;20030;-68
2022/09/07 08:55:42;;;;;;;0.35;0.35;;;17.60;82.30;;;;;;4976591;28;20038;-66
2022/09/07 08:58:23;;;;;;;1.88;1.13;;;17.30;83.40;;;;;;4982428;28;20058;-67
2022/09/07 09:00:49;;;;;;;0.40;0.40;;;17.70;83.90;;;;;;4969053;28;20035;-67
2022/09/07 09:03:26;;;;;;;0.63;0.50;;;17.80;82.70;;;;;;4970800;28;20034;-67
2022/09/07 09:06:19;;;;;;;0.40;0.40;;;18.10;83.10;;;;;;4977544;28;20050;-67
2022/09/07 09:09:02;;;;;;;0.50;0.50;;;18.30;81.80;;;;;;4986566;28;20042;-67
2022/09/07 09:11:46;;;;;;;0.52;0.50;;;18.30;80.70;;;;;;4982278;28;20046;-66
2022/09/07 09:14:27;;;;;;;0.40;0.40;;;18.00;80.90;;;;;;4980941;28;20486;-68
2022/09/07 09:17:09;;;;;;;0.35;0.35;;;18.20;80.70;;;;;;4981403;28;20034;-68
2022/09/07 09:20:12;;;;;;;1.45;0.63;;;18.30;80.60;;;;;;4986696;28;20405;-68
2022/09/07 09:22:38;;;;;;;0.38;0.38;;;18.30;79.40;;;;;;4982706;28;20167;-67
2022/09/07 09:25:30;;;;;;;0.85;0.77;;;18.30;80.50;;;;;;4976143;28;20441;-67
2022/09/07 09:27:55;;;;;;;0.60;0.60;;;18.50;79.40;;;;;;4974213;28;20107;-67
2022/09/07 09:30:22;;;;;;;0.40;0.40;;;18.60;79.00;;;;;;4983831;28;20038;-67
2022/09/07 09:32:51;;;;;;;0.45;0.45;;;18.60;78.90;;;;;;4984035;28;20589;-67
2022/09/07 09:35:24;;;;;;;0.63;0.38;;;18.90;78.80;;;;;;4975917;28;20456;-69
2022/09/07 09:37:50;;;;;;;0.40;0.40;;;18.90;77.90;;;;;;4980541;28;20035;-65
2022/09/07 09:40:24;;;;;;;0.40;0.40;;;18.90;78.10;;;;;;4980142;28;20065;-66
2022/09/07 09:43:18;;;;;;;0.30;0.30;;;18.90;77.20;;;;;;4974251;28;20057;-67
2022/09/07 09:45:47;;;;;;;0.30;0.30;;;18.90;77.70;;;;;;4977019;28;20428;-66
2022/09/07 09:48:26;;;;;;;0.40;0.40;;;19.00;76.80;;;;;;4977958;28;20034;-67
2022/09/07 09:50:55;;;;;;;0.30;0.30;;;19.10;76.30;;;;;;4976278;28;20101;-69
2022/09/07 09:53:26;;;;;;;0.30;0.30;;;19.20;76.10;;;;;;4988557;28;20022;-68
2022/09/07 09:55:53;;;;;;;0.40;0.40;;;19.10;75.80;;;;;;4976957;28;20046;-67
2022/09/07 09:58:26;;;;;;;;;;;19.10;76.30;;;;;;4985030;28;20030;-67
2022/09/07 10:00:56;;;;;;;0.30;0.30;;;19.00;75.30;;;;;;4982372;28;19963;-65
2022/09/07 10:03:25;;;;;;;0.40;0.40;;;19.20;75.40;;;;;;4982662;28;20251;-67
2022/09/07 10:05:51;;;;;;;0.30;0.30;;;19.20;73.40;;;;;;4991136;28;20508;-67
2022/09/07 10:08:19;;;;;;;2.03;0.73;;;19.10;73.60;;;;;;4978727;28;20042;-67
2022/09/07 10:11:03;;;;;;;0.30;0.30;;;18.80;74.90;;;;;;4981806;28;20501;-67
2022/09/07 10:13:36;;;;;;;0.50;0.50;;;18.90;75.00;;;;;;4987065;28;20040;-66
2022/09/07 10:16:05;;;;;;;0.57;0.55;;;18.80;75.00;;;;;;4977763;28;20113;-67
2022/09/07 10:18:39;;;;;;;0.30;0.30;;;18.80;74.70;;;;;;4984580;28;20069;-67
2022/09/07 10:21:24;;;;;;;0.43;0.43;;;19.10;74.80;;;;;;4978972;28;20042;-66
2022/09/07 10:23:59;;;;;;;0.38;0.38;;;19.70;72.80;;;;;;4975415;28;20038;-68
2022/09/07 10:26:36;;;;;;;0.55;0.55;;;19.80;72.70;;;;;;4982245;28;20026;-70
2022/09/07 10:29:19;;;;;;;0.75;0.75;;;19.80;72.40;;;;;;4970770;28;20061;-67
2022/09/07 10:32:21;;;;;;;0.90;0.60;;;20.00;71.40;;;;;;4983114;28;20030;-67
2022/09/07 10:35:14;;;;;;;0.30;0.30;;;20.30;70.40;;;;;;5008596;28;20115;-66
2022/09/07 10:37:56;;;;;;;0.35;0.35;;;20.70;70.90;;;;;;4975406;28;20035;-66
2022/09/07 10:40:33;;;;;;;0.30;0.30;;;21.00;68.20;;;;;;4981152;28;20054;-66
2022/09/07 10:43:28;;;;;;;0.35;0.35;;;21.30;68.10;;;;;;4979415;28;20186;-66
2022/09/07 10:46:24;;;;;;;0.30;0.30;;;21.20;68.00;;;;;;4975336;28;20038;-66
2022/09/07 10:48:54;;;;;;;0.68;0.68;;;21.10;68.80;;;;;;4994351;28;20034;-66
2022/09/07 10:51:25;;;;;;;0.63;0.63;;;20.90;67.70;;;;;;4980476;28;20528;-66
2022/09/07 10:54:15;;;;;;;0.30;0.30;;;20.70;68.00;;;;;;4970010;28;20482;-66
2022/09/07 10:56:57;;;;;;;0.40;0.40;;;20.70;66.90;;;;;;4976339;28;20026;-67
2022/09/07 10:59:31;;;;;;;0.68;0.68;;;20.50;67.30;;;;;;4978468;28;20030;-66
2022/09/07 11:02:09;;;;;;;0.40;0.40;;;20.60;67.70;;;;;;4982154;28;20038;-67
2022/09/07 11:04:53;;;;;;;0.30;0.30;;;21.00;68.50;;;;;;4977289;28;20035;-67
2022/09/07 11:07:28;;;;;;;0.38;0.38;;;21.60;66.70;;;;;;4970659;28;20570;-66
2022/09/07 11:10:15;;;;;;;0.32;0.32;;;22.20;66.10;;;;;;4989414;28;20031;-66
2022/09/07 11:12:44;;;;;;;0.50;0.50;;;22.20;65.10;;;;;;4978352;28;20026;-67
2022/09/07 11:15:25;;;;;;;0.47;0.43;;;21.70;64.60;;;;;;4976048;28;20035;-65
2022/09/07 11:18:04;;;;;;;0.30;0.30;;;21.40;65.80;;;;;;4973635;28;20930;-68
2022/09/07 11:20:38;;;;;;;0.30;0.30;;;21.20;65.40;;;;;;4981489;28;20644;-67
2022/09/07 11:23:31;;;;;;;0.30;0.30;;;20.90;65.90;;;;;;4985523;28;20031;-69
2022/09/07 11:26:18;;;;;;;0.68;0.68;;;20.50;66.70;;;;;;4978036;28;20038;-66
2022/09/07 11:29:10;;;;;;;0.43;0.43;;;20.50;67.30;;;;;;4980176;28;20382;-66
2022/09/07 11:31:43;;;;;;;0.60;0.50;;;20.60;68.60;;;;;;4974262;28;20126;-67
2022/09/07 11:34:48;;;;;;;0.30;0.30;;;20.90;66.60;;;;;;4973284;28;20083;-67
2022/09/07 11:37:33;;;;;;;0.57;0.57;;;21.10;66.00;;;;;;5027949;28;20042;-66
2022/09/07 11:40:23;;;;;;;0.43;0.43;;;21.30;65.10;;;;;;4972367;28;20041;-66
2022/09/07 11:43:10;;;;;;;0.20;0.20;;;21.30;64.80;;;;;;4977100;28;20187;-67
2022/09/07 11:45:59;;;;;;;0.38;0.38;;;21.20;64.20;;;;;;4983618;28;20528;-66
2022/09/07 11:48:52;;;;;;;0.35;0.35;;;21.10;64.60;;;;;;4979160;28;20430;-66
2022/09/07 11:51:25;;;;;;;0.30;0.30;;;21.00;64.10;;;;;;4968686;28;20133;-65
2022/09/07 11:53:56;;;;;;;0.50;0.50;;;20.70;63.80;;;;;;4979337;28;20038;-65
2022/09/07 11:56:38;;;;;;;0.30;0.30;;;20.20;64.10;;;;;;4975495;28;20025;-66
2022/09/07 11:59:31;;;;;;;0.40;0.40;;;20.00;65.10;;;;;;4977547;28;20839;-67
2022/09/07 12:02:15;;;;;;;0.70;0.40;;;20.00;66.10;;;;;;4978874;28;20026;-65
2022/09/07 12:05:14;;;;;;;0.38;0.38;;;20.00;65.50;;;;;;4977383;28;20647;-65
2022/09/07 12:08:00;;;;;;;0.43;0.43;;;20.00;66.30;;;;;;4971323;28;20030;-65
2022/09/07 12:10:45;;;;;;;0.38;0.38;;;19.90;65.00;;;;;;4975716;28;20027;-65
2022/09/07 12:13:57;;;;;;;0.40;0.40;;;19.80;65.50;;;;;;4984717;28;20390;-65
2022/09/07 12:16:37;;;;;;;1.30;1.02;;;19.60;66.30;;;;;;4971050;28;20038;-65
2022/09/07 12:19:22;;;;;;;0.30;0.30;;;19.50;66.00;;;;;;4974371;28;20035;-65
2022/09/07 12:21:51;;;;;;;0.75;0.70;;;19.40;66.00;;;;;;4982751;28;20026;-66
2022/09/07 12:24:43;;;;;;;0.30;0.30;;;19.30;66.00;;;;;;4976434;28;20402;-65
2022/09/07 12:27:20;;;;;;;0.63;0.63;;;19.20;66.70;;;;;;4978700;28;20054;-66
2022/09/07 12:30:10;;;;;;;0.45;0.45;;;19.20;67.00;;;;;;4967969;28;20045;-65
2022/09/07 12:32:47;;;;;;;0.30;0.30;;;19.30;67.20;;;;;;4970131;28;20043;-66
2022/09/07 12:35:25;;;;;;;0.35;0.35;;;19.20;66.30;;;;;;4980735;28;20045;-65
2022/09/07 12:37:52;;;;;;;0.30;0.30;;;19.10;67.40;;;;;;4983310;28;20030;-66
2022/09/07 12:40:27;;;;;;;0.40;0.40;;;19.10;66.80;;;;;;4971769;28;20042;-66
2022/09/07 12:43:43;;;;;;;0.47;0.47;;;19.20;67.10;;;;;;4971887;28;20529;-65
2022/09/07 12:46:38;;;;;;;1.27;1.10;;;19.10;66.20;;;;;;5016297;28;20054;-66
2022/09/07 12:49:15;;;;;;;0.30;0.30;;;19.00;65.90;;;;;;4984615;28;20051;-67
2022/09/07 12:51:41;;;;;;;;;;;19.00;65.80;;;;;;4973625;28;20073;-66
2022/09/07 12:54:46;;;;;;;0.50;0.50;;;18.80;65.50;;;;;;4980101;28;19953;-66
2022/09/07 12:57:48;;;;;;;0.30;0.30;;;18.80;66.00;;;;;;5033078;28;20025;-65
2022/09/07 13:00:55;;;;;;;0.40;0.40;;;18.70;65.70;;;;;;4975892;28;20030;-64
2022/09/07 13:03:45;;;;;;;1.75;0.50;;;18.70;66.60;;;;;;4993307;28;20105;-68
2022/09/07 13:06:30;;;;;;;0.38;0.38;;;18.80;65.90;;;;;;4975294;28;20031;-65
2022/09/07 13:08:56;;;;;;;0.40;0.40;;;18.80;65.80;;;;;;4973597;28;20095;-64
2022/09/07 13:11:34;;;;;;;0.30;0.30;;;18.80;66.00;;;;;;4975557;28;20038;-66
2022/09/07 13:14:23;;;;;;;0.60;0.60;;;18.70;66.20;;;;;;4973577;28;20410;-67
2022/09/07 13:17:27;;;;;;;0.50;0.50;;;18.70;66.60;;;;;;4982078;28;20106;-63
2022/09/07 13:19:52;;;;;;;0.30;0.30;;;18.70;66.70;;;;;;4993032;28;20069;-64
2022/09/07 13:22:30;;;;;;;0.60;0.60;;;18.70;67.00;;;;;;4973821;28;20697;-64